Time;durP1;ratioP1;P1;durP2;ratioP2;P2;SDS_P1;SDS_P2;PMS_P1;PMS_P2;Temp;Humidity;BMP_temperature;BMP_pressure;BME280_temperature;BME280_humidity;BME280_pressure;Samples;Min_cycle;Max_cycle;Signal;HPM_P1;HPM_P2
2021/05/04 00:00:06;;;;;;;5.25;2.90;;;;;;;4.73;70.84;99184.03;3479588;28;20053;-48
2021/05/04 00:01:48;;;;;;;4.72;2.20;;;;;;;4.71;70.66;99181.44;3482232;28;20050;-50
2021/05/04 00:03:29;;;;;;;3.53;2.50;;;;;;;4.69;70.94;99183.09;3482860;28;20053;-51
2021/05/04 00:05:11;;;;;;;6.50;2.45;;;;;;;4.67;71.05;99182.19;3480728;28;20052;-50
2021/05/04 00:06:53;;;;;;;3.20;2.25;;;;;;;4.67;70.90;99178.72;3483995;28;20098;-49
2021/05/04 00:08:34;;;;;;;4.65;2.75;;;;;;;4.69;71.03;99179.63;3480636;28;20403;-50
2021/05/04 00:10:16;;;;;;;5.88;2.70;;;;;;;4.68;71.24;99183.03;3484096;28;20543;-48
2021/05/04 00:11:57;;;;;;;3.75;2.38;;;;;;;4.67;71.08;99187.31;3480627;28;20477;-48
2021/05/04 00:13:39;;;;;;;3.10;2.28;;;;;;;4.67;70.77;99191.56;3479242;28;20431;-50
2021/05/04 00:15:20;;;;;;;5.50;2.47;;;;;;;4.67;71.08;99191.56;3482558;28;20460;-51
2021/05/04 00:17:03;;;;;;;4.05;2.78;;;;;;;4.66;71.02;99188.13;3480863;28;20431;-43
2021/05/04 00:18:44;;;;;;;5.03;2.30;;;;;;;4.64;71.30;99187.22;3483847;28;20049;-43
2021/05/04 00:20:26;;;;;;;6.07;2.88;;;;;;;4.62;71.09;99188.88;3479952;28;20056;-42
2021/05/04 00:22:08;;;;;;;3.67;2.35;;;;;;;4.59;71.32;99197.34;3483839;28;20045;-43
2021/05/04 00:23:49;;;;;;;5.80;2.53;;;;;;;4.58;71.56;99199.88;3480930;28;20048;-43
2021/05/04 00:25:31;;;;;;;5.63;2.95;;;;;;;4.56;71.66;99198.94;3481942;28;20056;-42
2021/05/04 00:27:12;;;;;;;5.43;2.97;;;;;;;4.55;71.74;99202.38;3482685;28;20103;-43
2021/05/04 00:28:54;;;;;;;5.97;3.20;;;;;;;4.52;71.96;99205.69;3479353;28;20072;-43
2021/05/04 00:30:36;;;;;;;4.13;2.55;;;;;;;4.56;71.57;99206.66;3483995;28;20053;-42
2021/05/04 00:32:17;;;;;;;3.67;2.60;;;;;;;4.56;71.63;99214.34;3480209;28;20096;-43
2021/05/04 00:33:58;;;;;;;5.32;3.10;;;;;;;4.54;71.98;99205.75;3483542;28;20053;-42
2021/05/04 00:35:40;;;;;;;4.55;2.50;;;;;;;4.54;72.14;99205.75;3481057;28;20052;-43
2021/05/04 00:37:22;;;;;;;6.75;3.10;;;;;;;4.52;71.71;99205.69;3479471;28;20045;-43
2021/05/04 00:39:04;;;;;;;2.95;2.00;;;;;;;4.50;72.02;99204.78;3482852;28;20060;-43
2021/05/04 00:40:46;;;;;;;3.80;2.30;;;;;;;4.52;72.16;99205.69;3480166;28;20104;-43
2021/05/04 00:42:27;;;;;;;6.65;3.10;;;;;;;4.51;71.98;99206.53;3484346;28;20049;-49
2021/05/04 00:44:08;;;;;;;4.32;3.00;;;;;;;4.52;71.86;99208.25;3479132;28;20122;-49
2021/05/04 00:45:50;;;;;;;4.45;2.60;;;;;;;4.51;72.19;99206.53;3482138;28;20106;-48
2021/05/04 00:47:31;;;;;;;4.93;2.72;;;;;;;4.48;72.57;99203.88;3480529;28;20052;-49
2021/05/04 00:49:12;;;;;;;4.40;3.17;;;;;;;4.47;72.52;99202.13;3479715;28;20099;-49
2021/05/04 00:50:54;;;;;;;4.88;2.92;;;;;;;4.46;72.60;99202.06;3482745;28;20053;-49
2021/05/04 00:52:36;;;;;;;4.20;2.22;;;;;;;4.45;72.54;99201.19;3478648;28;20049;-48
2021/05/04 00:54:18;;;;;;;5.63;3.08;;;;;;;4.44;72.71;99199.44;3483650;28;20083;-48
2021/05/04 00:56:01;;;;;;;5.72;2.63;;;;;;;4.44;72.51;99203.72;3480283;28;20581;-48
2021/05/04 00:57:43;;;;;;;4.03;3.00;;;;;;;4.44;72.78;99209.72;3483110;28;20052;-49
2021/05/04 00:59:25;;;;;;;5.45;2.67;;;;;;;4.43;72.70;99202.84;3481035;28;20096;-49
2021/05/04 01:01:07;;;;;;;5.35;3.13;;;;;;;4.41;72.94;99204.50;3480398;28;20103;-50
2021/05/04 01:02:48;;;;;;;4.35;2.63;;;;;;;4.40;72.97;99206.19;3483500;28;20048;-48
2021/05/04 01:04:32;;;;;;;4.72;2.95;;;;;;;4.39;72.76;99203.59;3480118;28;20041;-50
2021/05/04 01:06:13;;;;;;;5.45;3.42;;;;;;;4.38;72.88;99204.41;3483718;28;20106;-49
2021/05/04 01:07:55;;;;;;;4.20;2.72;;;;;;;4.39;73.33;99201.03;3480131;28;20049;-48
2021/05/04 01:09:37;;;;;;;10.63;3.55;;;;;;;4.38;73.36;99202.69;3482799;28;20056;-48
2021/05/04 01:11:18;;;;;;;4.40;2.85;;;;;;;4.41;73.00;99199.38;3480860;28;20541;-52
2021/05/04 01:13:00;;;;;;;4.22;3.00;;;;;;;4.44;72.83;99203.72;3477907;28;20049;-50
2021/05/04 01:14:41;;;;;;;5.57;3.40;;;;;;;4.45;73.34;99197.75;3483139;28;20052;-52
2021/05/04 01:16:22;;;;;;;3.75;2.65;;;;;;;4.44;73.19;99194.31;3479983;28;20044;-49
2021/05/04 01:18:04;;;;;;;5.00;3.35;;;;;;;4.45;72.87;99193.50;3483422;28;20565;-50
2021/05/04 01:19:45;;;;;;;5.32;3.40;;;;;;;4.46;73.07;99195.25;3479905;28;20053;-49
2021/05/04 01:21:27;;;;;;;4.85;3.03;;;;;;;4.46;73.29;99200.38;3482908;28;20146;-49
2021/05/04 01:23:09;;;;;;;6.40;2.95;;;;;;;4.50;72.84;99194.50;3473034;28;20503;-50
2021/05/04 01:24:50;;;;;;;4.15;2.72;;;;;;;4.51;72.85;99191.13;3471022;28;20077;-50
2021/05/04 01:26:31;;;;;;;4.72;3.42;;;;;;;4.53;73.16;99192.03;3481991;28;20057;-50
2021/05/04 01:28:17;;;;;;;5.25;3.20;;;;;;;4.53;73.30;99186.91;3478169;28;20088;-49
2021/05/04 01:29:58;;;;;;;5.53;2.92;;;;;;;4.56;72.73;99186.97;3483419;28;20048;-49
2021/05/04 01:31:40;;;;;;;3.97;2.92;;;;;;;4.57;73.09;99185.28;3477391;28;20084;-49
2021/05/04 01:33:21;;;;;;;4.85;2.60;;;;;;;4.57;72.96;99188.72;3481286;28;20048;-49
2021/05/04 01:35:05;;;;;;;7.22;4.00;;;;;;;4.56;73.38;99199.81;3480826;28;20052;-50
2021/05/04 01:36:48;;;;;;;4.15;2.92;;;;;;;4.56;73.17;99198.94;3480111;28;20481;-43
2021/05/04 01:38:29;;;;;;;6.63;3.28;;;;;;;4.54;73.46;99198.03;3483140;28;20056;-43
2021/05/04 01:40:13;;;;;;;5.03;2.80;;;;;;;4.52;73.41;99205.69;3480032;28;20107;-43
2021/05/04 01:41:54;;;;;;;4.38;2.70;;;;;;;4.52;73.57;99208.25;3483132;28;20053;-43
2021/05/04 01:43:35;;;;;;;5.65;3.63;;;;;;;4.51;73.62;99214.25;3480864;28;20045;-43
2021/05/04 01:45:17;;;;;;;5.55;2.58;;;;;;;4.52;73.21;99202.25;3481619;28;20048;-42
2021/05/04 01:46:58;;;;;;;6.13;3.88;;;;;;;4.51;73.64;99205.66;3481199;28;20430;-44
2021/05/04 01:48:40;;;;;;;5.05;3.45;;;;;;;4.50;73.91;99207.34;3478415;28;20068;-43
2021/05/04 01:50:22;;;;;;;5.75;3.45;;;;;;;4.48;73.93;99216.72;3481917;28;20045;-43
2021/05/04 01:52:05;;;;;;;7.80;3.55;;;;;;;4.48;73.99;99209.00;3477633;28;20042;-43
2021/05/04 01:53:47;;;;;;;4.93;3.00;;;;;;;4.47;73.65;99199.53;3469354;28;20418;-43
2021/05/04 01:55:28;;;;;;;4.28;3.13;;;;;;;4.46;73.82;99213.22;3477195;28;20049;-43
2021/05/04 01:57:09;;;;;;;5.30;2.80;;;;;;;4.43;73.99;99204.56;3480114;28;20454;-43
2021/05/04 01:58:54;;;;;;;5.38;3.30;;;;;;;4.41;73.82;99201.94;3481616;28;20143;-43
2021/05/04 02:00:35;;;;;;;;;;;;;;;4.39;74.09;99206.16;3479813;28;20133;-43
2021/05/04 02:02:17;;;;;;;4.32;2.85;;;;;;;4.36;74.55;99213.75;3469134;28;19925;-43
2021/05/04 02:03:58;;;;;;;4.03;3.33;;;;;;;4.33;74.89;99209.38;3473943;28;20052;-43
2021/05/04 02:05:40;;;;;;;4.78;3.45;;;;;;;4.30;74.53;99218.69;3483020;28;20049;-43
2021/05/04 02:07:22;;;;;;;6.30;3.55;;;;;;;4.28;75.04;99215.22;3477942;28;20049;-43
2021/05/04 02:09:04;;;;;;;4.18;3.10;;;;;;;4.25;74.98;99212.53;3479942;28;20048;-42
2021/05/04 02:10:46;;;;;;;5.60;3.38;;;;;;;4.24;75.15;99221.94;3480532;28;20084;-42
2021/05/04 02:12:27;;;;;;;5.18;2.95;;;;;;;4.21;75.36;99217.59;3478102;28;20072;-43
2021/05/04 02:14:08;;;;;;;6.43;3.88;;;;;;;4.20;75.56;99220.13;3481121;28;20584;-43
2021/05/04 02:15:51;;;;;;;5.65;3.38;;;;;;;4.19;75.56;99218.34;3479432;28;20059;-42
2021/05/04 02:17:32;;;;;;;5.50;3.70;;;;;;;4.17;75.95;99210.59;3482717;28;20091;-43
2021/05/04 02:19:14;;;;;;;6.45;4.13;;;;;;;4.16;76.13;99218.25;3479276;28;20045;-43
2021/05/04 02:20:55;;;;;;;6.18;3.15;;;;;;;4.16;75.88;99207.97;3481398;28;20060;-43
2021/05/04 02:22:37;;;;;;;10.18;4.55;;;;;;;4.16;76.06;99203.75;3480082;28;20064;-43
2021/05/04 02:24:18;;;;;;;9.02;4.25;;;;;;;4.17;76.07;99213.16;3479476;28;20049;-42
2021/05/04 02:26:00;;;;;;;5.47;3.63;;;;;;;4.18;75.98;99216.63;3482495;28;20118;-43
2021/05/04 02:27:42;;;;;;;6.35;3.72;;;;;;;4.18;75.94;99220.06;3476751;28;20068;-43
2021/05/04 02:29:23;;;;;;;7.38;4.07;;;;;;;4.18;76.10;99224.34;3482786;28;20115;-49
2021/05/04 02:31:05;;;;;;;6.15;3.80;;;;;;;4.19;76.50;99220.91;3477954;28;20061;-48
2021/05/04 02:32:46;;;;;;;7.40;4.38;;;;;;;4.17;76.42;99223.44;3479930;28;20049;-50
2021/05/04 02:34:27;;;;;;;6.05;3.78;;;;;;;4.17;76.47;99222.56;3481150;28;20536;-43
2021/05/04 02:36:09;;;;;;;7.70;4.00;;;;;;;4.15;76.77;99219.09;3479009;28;20493;-43
2021/05/04 02:37:51;;;;;;;5.82;3.65;;;;;;;4.14;76.87;99219.91;3468813;28;20052;-42
2021/05/04 02:39:33;;;;;;;8.25;4.30;;;;;;;4.13;76.81;99225.88;3473358;28;20049;-43
2021/05/04 02:41:14;;;;;;;7.43;4.70;;;;;;;4.10;77.12;99220.63;3482954;28;20073;-49
2021/05/04 02:42:55;;;;;;;6.32;4.07;;;;;;;4.10;77.29;99223.22;3478699;28;20056;-50
2021/05/04 02:44:37;;;;;;;5.80;3.60;;;;;;;4.09;76.81;99218.88;3479780;28;20422;-48
2021/05/04 02:46:18;;;;;;;8.32;4.18;;;;;;;4.07;77.36;99224.00;3480590;28;20080;-49
2021/05/04 02:48:00;;;;;;;5.90;3.20;;;;;;;4.06;77.22;99224.81;3480346;28;20482;-49
2021/05/04 02:49:41;;;;;;;5.85;3.47;;;;;;;4.06;77.12;99229.06;3468559;28;20057;-49
2021/05/04 02:51:23;;;;;;;9.50;4.40;;;;;;;4.04;77.31;99223.88;3473068;28;20053;-49
2021/05/04 02:53:05;;;;;;;6.03;4.00;;;;;;;4.03;77.12;99227.25;3482441;28;20053;-50
2021/05/04 02:54:46;;;;;;;6.13;3.95;;;;;;;4.03;77.82;99228.13;3479096;28;20052;-49
2021/05/04 02:56:27;;;;;;;5.97;4.10;;;;;;;4.03;77.41;99227.25;3481296;28;20426;-49
2021/05/04 02:58:09;;;;;;;9.25;4.70;;;;;;;4.03;77.65;99230.69;3480199;28;20114;-50
2021/05/04 02:59:50;;;;;;;10.70;4.65;;;;;;;4.03;77.84;99229.81;3480398;28;20060;-50
2021/05/04 03:01:31;;;;;;;6.38;4.95;;;;;;;4.03;77.92;99219.56;3468935;28;20056;-50
2021/05/04 03:03:13;;;;;;;10.30;4.68;;;;;;;4.05;78.24;99230.75;3473917;28;20053;-49
2021/05/04 03:04:55;;;;;;;8.52;4.82;;;;;;;4.06;77.95;99222.22;3482514;28;20053;-50
2021/05/04 03:06:36;;;;;;;7.40;4.32;;;;;;;4.08;77.62;99225.72;3478933;28;20083;-49
2021/05/04 03:08:18;;;;;;;7.90;4.63;;;;;;;4.11;77.92;99232.66;3480494;28;20048;-42
2021/05/04 03:09:59;;;;;;;14.52;4.68;;;;;;;4.12;78.07;99231.81;3480111;28;20049;-43
2021/05/04 03:11:41;;;;;;;6.90;4.32;;;;;;;4.14;77.65;99230.16;3478754;28;20418;-43
2021/05/04 03:13:23;;;;;;;4.88;3.88;;;;;;;4.14;77.89;99233.63;3480573;28;20045;-43
2021/05/04 03:15:06;;;;;;;8.05;4.90;;;;;;;4.15;78.10;99232.78;3479033;28;20049;-43
2021/05/04 03:16:47;;;;;;;6.27;4.57;;;;;;;4.17;77.97;99236.28;3482623;28;20111;-50
2021/05/04 03:18:29;;;;;;;7.75;4.68;;;;;;;4.19;77.83;99242.34;3478793;28;20479;-49
2021/05/04 03:20:11;;;;;;;6.35;3.92;;;;;;;4.20;77.79;99235.53;3481245;28;20057;-48
2021/05/04 03:21:53;;;;;;;7.45;4.90;;;;;;;4.23;77.51;99240.75;3479725;28;20080;-53
2021/05/04 03:23:35;;;;;;;6.43;4.03;;;;;;;4.27;77.54;99241.72;3480122;28;20057;-50
2021/05/04 03:25:16;;;;;;;8.13;4.53;;;;;;;4.27;77.63;99247.72;3481855;28;20518;-50
2021/05/04 03:26:57;;;;;;;6.57;4.25;;;;;;;4.29;77.29;99247.78;3477872;28;20045;-50
2021/05/04 03:28:39;;;;;;;8.90;5.22;;;;;;;4.31;77.61;99238.41;3482267;28;20060;-50
2021/05/04 03:30:20;;;;;;;7.55;4.43;;;;;;;4.34;77.36;99248.78;3477477;28;20049;-49
2021/05/04 03:32:02;;;;;;;6.53;4.45;;;;;;;4.36;77.46;99260.84;3481268;28;20048;-49
2021/05/04 03:33:43;;;;;;;6.70;4.38;;;;;;;4.38;77.26;99251.50;3479655;28;20139;-50
2021/05/04 03:35:25;;;;;;;9.05;4.43;;;;;;;4.40;77.45;99256.69;3479035;28;20045;-50
2021/05/04 03:37:06;;;;;;;6.43;4.28;;;;;;;4.42;77.62;99262.72;3481828;28;20054;-51
2021/05/04 03:38:49;;;;;;;7.30;5.10;;;;;;;4.45;77.31;99256.84;3478737;28;20050;-49
2021/05/04 03:40:30;;;;;;;6.10;4.43;;;;;;;4.48;77.14;99257.81;3482085;28;20053;-50
2021/05/04 03:42:12;;;;;;;6.43;4.22;;;;;;;4.50;77.19;99255.28;3478544;28;20049;-50
2021/05/04 03:43:53;;;;;;;5.65;4.03;;;;;;;4.55;77.27;99254.59;3481220;28;20671;-49
2021/05/04 03:45:34;;;;;;;7.03;4.80;;;;;;;4.59;76.95;99269.28;3479394;28;20084;-49
2021/05/04 03:47:16;;;;;;;6.53;4.43;;;;;;;4.65;76.91;99262.56;3479720;28;20477;-50
2021/05/04 03:48:58;;;;;;;6.63;4.65;;;;;;;4.68;76.83;99266.13;3480641;28;20119;-50
2021/05/04 03:50:39;;;;;;;6.57;4.18;;;;;;;4.72;76.83;99265.38;3478575;28;20084;-43
2021/05/04 03:52:21;;;;;;;10.55;4.35;;;;;;;4.78;76.60;99265.56;3482001;28;20056;-44
2021/05/04 03:54:05;;;;;;;8.18;5.28;;;;;;;4.83;76.48;99259.69;3472268;28;20057;-43
2021/05/04 03:55:47;;;;;;;10.27;5.07;;;;;;;4.85;76.45;99258.94;3469415;28;20088;-43
2021/05/04 03:57:28;;;;;;;6.90;5.05;;;;;;;4.88;75.67;99265.84;3482075;28;20064;-50
2021/05/04 03:59:10;;;;;;;8.35;5.38;;;;;;;4.91;75.91;99264.22;3479611;28;20453;-52
2021/05/04 04:00:52;;;;;;;7.50;4.68;;;;;;;4.95;75.70;99260.94;3484239;28;20081;-43
2021/05/04 04:02:33;;;;;;;7.30;4.57;;;;;;;5.00;75.35;99263.63;3478613;28;20045;-43
2021/05/04 04:04:14;;;;;;;8.23;4.80;;;;;;;5.04;75.27;99262.03;3470531;28;20058;-44
2021/05/04 04:05:56;;;;;;;6.03;4.15;;;;;;;5.09;75.46;99260.47;3477607;28;20602;-43
2021/05/04 04:07:37;;;;;;;7.70;4.47;;;;;;;5.15;75.32;99263.22;3483589;28;20091;-43
2021/05/04 04:09:19;;;;;;;8.45;5.43;;;;;;;5.17;74.98;99262.44;3481781;28;20049;-43
2021/05/04 04:11:01;;;;;;;8.80;5.30;;;;;;;5.23;74.85;99266.00;3481750;28;20465;-43
2021/05/04 04:12:42;;;;;;;6.97;4.72;;;;;;;5.30;74.90;99255.91;3482826;28;20055;-43
2021/05/04 04:14:24;;;;;;;6.97;4.63;;;;;;;5.34;74.59;99259.44;3479305;28;20056;-44
2021/05/04 04:16:05;;;;;;;8.95;4.72;;;;;;;5.41;74.46;99261.34;3483951;28;20402;-43
2021/05/04 04:17:46;;;;;;;7.65;5.22;;;;;;;5.42;74.29;99257.09;3479921;28;20068;-43
2021/05/04 04:19:28;;;;;;;6.45;4.13;;;;;;;5.47;74.12;99265.81;3483467;28;20049;-43
2021/05/04 04:21:09;;;;;;;8.70;5.10;;;;;;;5.52;74.68;99262.53;3481269;28;20067;-43
2021/05/04 04:22:51;;;;;;;9.55;5.35;;;;;;;5.61;74.12;99267.06;3480601;28;20045;-51
2021/05/04 04:24:33;;;;;;;7.50;4.68;;;;;;;5.64;73.62;99266.25;3484058;28;20056;-50
2021/05/04 04:26:14;;;;;;;8.77;5.18;;;;;;;5.68;73.82;99274.13;3479365;28;20057;-49
2021/05/04 04:27:56;;;;;;;7.13;5.22;;;;;;;5.73;73.61;99266.53;3484349;28;20083;-50
2021/05/04 04:29:37;;;;;;;7.05;4.10;;;;;;;5.79;73.72;99273.53;3479221;28;20049;-53
2021/05/04 04:31:18;;;;;;;10.00;5.00;;;;;;;5.82;73.47;99271.00;3483660;28;20139;-51
2021/05/04 04:33:00;;;;;;;6.53;5.35;;;;;;;5.87;73.25;99277.16;3480645;28;20053;-51
2021/05/04 04:34:41;;;;;;;8.93;5.30;;;;;;;5.93;73.15;99272.19;3482083;28;20141;-44
2021/05/04 04:36:23;;;;;;;7.90;5.20;;;;;;;5.98;73.21;99277.44;3481636;28;20055;-43
2021/05/04 04:38:04;;;;;;;7.45;4.65;;;;;;;6.03;72.99;99268.13;3480791;28;20045;-43
2021/05/04 04:39:46;;;;;;;6.82;4.93;;;;;;;6.12;72.97;99270.97;3484152;28;20057;-43
2021/05/04 04:41:28;;;;;;;9.32;5.05;;;;;;;6.18;72.44;99268.50;3480361;28;20049;-43
2021/05/04 04:43:10;;;;;;;7.03;4.60;;;;;;;6.26;72.21;99273.88;3483415;28;20472;-44
2021/05/04 04:44:51;;;;;;;7.07;4.97;;;;;;;6.29;71.60;99276.50;3480863;28;20048;-43
2021/05/04 04:46:40;;;;;;;14.07;4.90;;;;;;;6.28;71.54;99267.91;3479278;28;20092;-43
2021/05/04 04:48:22;;;;;;;5.90;4.50;;;;;;;6.37;71.99;99271.56;3483445;28;20115;-43
2021/05/04 04:50:04;;;;;;;7.57;4.68;;;;;;;6.42;71.81;99264.81;3478907;28;20099;-43
2021/05/04 04:51:47;;;;;;;7.32;4.97;;;;;;;6.50;71.54;99265.84;3483854;28;20060;-46
2021/05/04 04:53:28;;;;;;;8.77;5.47;;;;;;;6.59;71.09;99267.75;3480150;28;20407;-42
2021/05/04 04:55:11;;;;;;;9.25;5.13;;;;;;;6.66;71.00;99273.09;3482251;28;20056;-42
2021/05/04 04:56:52;;;;;;;6.90;4.97;;;;;;;6.71;70.86;99278.34;3481195;28;20053;-46
2021/05/04 04:58:34;;;;;;;8.75;5.13;;;;;;;6.76;70.76;99273.31;3480056;28;20103;-43
2021/05/04 05:00:15;;;;;;;8.07;5.13;;;;;;;6.82;70.66;99283.75;3482737;28;20060;-43
2021/05/04 05:01:57;;;;;;;7.28;4.45;;;;;;;6.87;70.45;99287.31;3478884;28;20051;-42
2021/05/04 05:03:39;;;;;;;7.95;5.50;;;;;;;6.94;70.88;99278.88;3483642;28;20061;-45
2021/05/04 05:05:20;;;;;;;9.05;4.57;;;;;;;6.98;70.06;99280.72;3480048;28;20091;-44
2021/05/04 05:07:06;;;;;;;12.55;5.95;;;;;;;7.05;69.94;99294.59;3481266;28;20521;-51
2021/05/04 05:08:48;;;;;;;7.75;4.97;;;;;;;7.03;69.52;99289.41;3481767;28;20052;-52
2021/05/04 05:10:30;;;;;;;9.45;5.22;;;;;;;7.07;69.85;99290.34;3478605;28;20465;-53
2021/05/04 05:12:11;;;;;;;6.40;4.75;;;;;;;7.15;69.61;99280.19;3483421;28;20049;-51
2021/05/04 05:13:53;;;;;;;9.13;5.00;;;;;;;7.21;69.09;99283.78;3477137;28;20110;-51
2021/05/04 05:15:38;;;;;;;6.57;5.00;;;;;;;7.34;69.63;99286.63;3483367;28;20052;-51
2021/05/04 05:17:20;;;;;;;6.78;4.85;;;;;;;7.38;68.63;99291.84;3480002;28;20049;-51
2021/05/04 05:19:02;;;;;;;10.15;4.43;;;;;;;7.42;68.46;99293.69;3481033;28;20153;-53
2021/05/04 05:20:44;;;;;;;7.40;4.88;;;;;;;7.47;68.70;99291.16;3481723;28;20052;-50
2021/05/04 05:22:26;;;;;;;8.05;4.75;;;;;;;7.58;68.21;99291.38;3479868;28;20068;-51
2021/05/04 05:24:09;;;;;;;8.55;5.15;;;;;;;7.63;68.06;99290.63;3469777;28;20060;-53
2021/05/04 05:25:51;;;;;;;10.00;5.50;;;;;;;7.62;67.36;99300.94;3471949;28;20545;-45
2021/05/04 05:27:33;;;;;;;8.80;4.97;;;;;;;7.68;68.07;99295.88;3469667;28;20046;-45
2021/05/04 05:29:15;;;;;;;9.15;5.05;;;;;;;7.78;67.82;99302.09;3479109;28;20419;-45
2021/05/04 05:30:56;;;;;;;6.22;3.95;;;;;;;7.78;66.44;99309.84;3481498;28;20053;-45
2021/05/04 05:32:38;;;;;;;8.60;4.97;;;;;;;7.77;66.88;99297.78;3480775;28;20049;-45
2021/05/04 05:34:19;;;;;;;7.72;4.50;;;;;;;7.75;66.65;99300.31;3479892;28;20067;-51
2021/05/04 05:36:00;;;;;;;6.32;4.00;;;;;;;7.79;67.12;99307.31;3483210;28;20072;-53
2021/05/04 05:37:48;;;;;;;5.40;4.35;;;;;;;7.83;66.62;99298.75;3479716;28;20045;-51
2021/05/04 05:39:29;;;;;;;8.45;4.57;;;;;;;7.83;66.54;99295.31;3482671;28;20506;-54
2021/05/04 05:41:12;;;;;;;6.63;4.15;;;;;;;7.86;66.92;99294.50;3480070;28;20528;-51
2021/05/04 05:42:54;;;;;;;8.02;4.75;;;;;;;7.93;66.38;99288.59;3479931;28;20064;-51
2021/05/04 05:44:35;;;;;;;7.20;4.20;;;;;;;8.02;66.07;99299.97;3470556;28;20056;-51
2021/05/04 05:46:17;;;;;;;7.15;4.88;;;;;;;8.06;65.90;99294.84;3473757;28;20053;-51
2021/05/04 05:47:58;;;;;;;6.03;5.00;;;;;;;8.05;66.43;99290.53;3483590;28;20063;-51
2021/05/04 05:49:41;;;;;;;7.03;4.60;;;;;;;8.05;65.79;99293.13;3473858;28;20056;-53
2021/05/04 05:51:22;;;;;;;7.10;5.30;;;;;;;8.02;66.66;99292.22;3469502;28;20084;-50
2021/05/04 05:53:03;;;;;;;7.82;5.22;;;;;;;8.13;66.65;99284.66;3480170;28;20446;-50
2021/05/04 05:54:45;;;;;;;7.82;5.05;;;;;;;8.25;66.73;99290.88;3479111;28;20089;-50
2021/05/04 05:56:27;;;;;;;10.10;4.93;;;;;;;8.40;65.70;99291.13;3481206;28;20064;-51
2021/05/04 05:58:09;;;;;;;6.72;4.00;;;;;;;8.41;65.00;99300.59;3478193;28;20049;-51
2021/05/04 05:59:50;;;;;;;7.15;4.70;;;;;;;8.39;64.89;99289.38;3483230;28;20076;-45
2021/05/04 06:01:31;;;;;;;7.90;5.45;;;;;;;8.43;65.76;99296.34;3479515;28;20163;-44
2021/05/04 06:03:13;;;;;;;8.20;4.50;;;;;;;8.42;64.83;99294.59;3482367;28;20555;-45
2021/05/04 06:04:54;;;;;;;8.23;5.03;;;;;;;8.40;65.39;99296.28;3478891;28;20049;-44
2021/05/04 06:06:35;;;;;;;7.43;4.75;;;;;;;8.47;65.54;99302.44;3480389;28;20040;-44
2021/05/04 06:08:17;;;;;;;7.50;4.68;;;;;;;8.59;65.33;99300.91;3481152;28;20045;-44
2021/05/04 06:09:59;;;;;;;9.00;5.28;;;;;;;8.67;65.33;99297.56;3477982;28;20507;-44
2021/05/04 06:11:41;;;;;;;7.35;4.78;;;;;;;8.74;64.59;99291.66;3482712;28;20053;-44
2021/05/04 06:13:22;;;;;;;7.78;5.32;;;;;;;8.76;63.47;99288.25;3478131;28;20064;-44
2021/05/04 06:15:04;;;;;;;7.43;4.88;;;;;;;8.84;64.03;99288.34;3482419;28;20053;-44
2021/05/04 06:16:46;;;;;;;6.43;4.75;;;;;;;8.99;63.97;99287.69;3479779;28;20045;-44
2021/05/04 06:18:27;;;;;;;9.48;4.72;;;;;;;9.20;63.28;99296.59;3479557;28;20076;-44
2021/05/04 06:20:10;;;;;;;6.45;4.47;;;;;;;9.32;62.93;99289.00;3481812;28;20049;-44
2021/05/04 06:21:51;;;;;;;5.80;3.72;;;;;;;9.38;61.62;99291.63;3479137;28;20048;-44
2021/05/04 06:23:32;;;;;;;6.75;4.55;;;;;;;9.47;61.46;99293.50;3482861;28;20138;-45
2021/05/04 06:25:14;;;;;;;6.43;4.53;;;;;;;9.57;61.26;99302.25;3479209;28;20150;-45
2021/05/04 06:26:57;;;;;;;5.53;3.95;;;;;;;9.58;60.57;99291.03;3482418;28;20191;-45
2021/05/04 06:28:39;;;;;;;4.97;3.57;;;;;;;9.57;61.06;99285.00;3479828;28;20061;-44
2021/05/04 06:30:21;;;;;;;8.00;4.43;;;;;;;9.63;60.38;99291.97;3479225;28;20294;-45
2021/05/04 06:32:08;;;;;;;7.93;4.15;;;;;;;9.57;60.46;99297.09;3481113;28;20056;-44
2021/05/04 06:33:50;;;;;;;8.30;4.80;;;;;;;9.46;59.99;99295.22;3477977;28;20144;-45
2021/05/04 06:35:33;;;;;;;6.50;4.15;;;;;;;9.48;61.59;99282.31;3482568;28;20064;-44
2021/05/04 06:37:15;;;;;;;6.95;4.35;;;;;;;9.66;61.12;99295.47;3477843;28;20661;-44
2021/05/04 06:38:57;;;;;;;8.95;4.22;;;;;;;9.70;60.60;99291.19;3480393;28;20049;-45
2021/05/04 06:40:39;;;;;;;10.30;4.47;;;;;;;9.66;59.48;99299.78;3480192;28;20044;-44
2021/05/04 06:42:21;;;;;;;4.63;3.38;;;;;;;9.61;59.47;99291.09;3478926;28;20049;-45
2021/05/04 06:44:03;;;;;;;5.60;3.55;;;;;;;9.56;59.75;99297.94;3482252;28;20049;-45
2021/05/04 06:45:45;;;;;;;4.78;4.25;;;;;;;9.49;59.65;99289.25;3477782;28;20076;-45
2021/05/04 06:47:26;;;;;;;6.35;4.20;;;;;;;9.42;60.81;99309.00;3482500;28;20052;-44
2021/05/04 06:49:08;;;;;;;6.90;4.50;;;;;;;9.43;60.25;99304.69;3477806;28;20055;-45
2021/05/04 06:50:49;;;;;;;8.68;4.63;;;;;;;9.42;61.04;99305.50;3480097;28;20426;-46
2021/05/04 06:52:30;;;;;;;8.52;4.28;;;;;;;9.45;60.21;99311.63;3479963;28;20458;-45
2021/05/04 06:54:12;;;;;;;10.38;4.57;;;;;;;9.46;60.14;99321.13;3479525;28;20056;-50
2021/05/04 06:55:54;;;;;;;7.10;4.00;;;;;;;9.54;59.80;99310.84;3482421;28;20049;-51
2021/05/04 06:57:36;;;;;;;6.60;4.63;;;;;;;9.51;60.37;99311.69;3477678;28;20053;-52
2021/05/04 06:59:17;;;;;;;6.82;4.38;;;;;;;9.54;59.55;99331.56;3482350;28;20052;-52
2021/05/04 07:00:58;;;;;;;5.97;3.80;;;;;;;9.54;59.53;99318.63;3477608;28;20045;-52
2021/05/04 07:02:40;;;;;;;5.97;3.53;;;;;;;9.54;59.16;99313.44;3480570;28;20060;-52
2021/05/04 07:04:22;;;;;;;5.45;3.88;;;;;;;9.60;60.14;99318.72;3478763;28;20557;-49
2021/05/04 07:06:03;;;;;;;7.13;4.60;;;;;;;9.67;60.83;99317.06;3478817;28;20079;-49
2021/05/04 07:07:45;;;;;;;6.07;4.43;;;;;;;9.75;59.52;99330.09;3482193;28;20049;-52
2021/05/04 07:09:26;;;;;;;7.15;4.70;;;;;;;9.79;59.90;99331.84;3476344;28;20462;-51
2021/05/04 07:11:07;;;;;;;5.32;4.03;;;;;;;9.78;59.02;99333.59;3482040;28;20448;-51
2021/05/04 07:12:49;;;;;;;6.32;4.63;;;;;;;9.79;60.01;99327.56;3478940;28;20080;-50
2021/05/04 07:14:32;;;;;;;7.35;3.95;;;;;;;9.72;59.65;99331.81;3480115;28;20057;-51
2021/05/04 07:16:13;;;;;;;6.35;3.83;;;;;;;9.67;60.21;99324.84;3479556;28;20503;-49
2021/05/04 07:17:56;;;;;;;9.25;4.95;;;;;;;9.52;60.15;99331.56;3480279;28;20049;-52
2021/05/04 07:19:39;;;;;;;6.38;4.60;;;;;;;9.40;61.44;99325.31;3469017;28;20052;-50
2021/05/04 07:21:20;;;;;;;7.35;4.93;;;;;;;9.41;60.82;99333.09;3472277;28;20053;-53
2021/05/04 07:23:04;;;;;;;6.93;3.90;;;;;;;9.38;60.51;99335.66;3482341;28;20087;-51
2021/05/04 07:24:46;;;;;;;6.32;4.10;;;;;;;9.31;60.65;99336.41;3478908;28;20049;-50
2021/05/04 07:26:27;;;;;;;5.57;4.22;;;;;;;9.31;60.65;99334.72;3480800;28;20053;-50
2021/05/04 07:28:10;;;;;;;10.40;3.90;;;;;;;9.30;61.61;99334.69;3480008;28;20080;-51
2021/05/04 07:29:51;;;;;;;7.50;4.93;;;;;;;9.25;62.11;99326.88;3480363;28;20045;-50
2021/05/04 07:31:34;;;;;;;7.88;3.90;;;;;;;9.29;62.07;99340.72;3470693;28;20053;-51
2021/05/04 07:33:15;;;;;;;9.13;4.53;;;;;;;9.23;62.31;99351.84;3476598;28;20148;-49
2021/05/04 07:34:57;;;;;;;7.00;4.28;;;;;;;9.13;61.95;99345.66;3484497;28;20572;-51
2021/05/04 07:36:38;;;;;;;10.98;4.68;;;;;;;9.23;62.30;99340.66;3479838;28;20049;-50
2021/05/04 07:38:20;;;;;;;8.15;4.60;;;;;;;9.35;62.54;99339.09;3482104;28;20084;-50
2021/05/04 07:40:01;;;;;;;9.40;4.63;;;;;;;9.36;61.54;99350.28;3482879;28;20053;-49
2021/05/04 07:41:42;;;;;;;5.82;4.03;;;;;;;9.29;60.75;99351.06;3479667;28;20525;-49
2021/05/04 07:43:24;;;;;;;8.95;3.97;;;;;;;9.27;59.80;99352.78;3484162;28;20080;-50
2021/05/04 07:45:07;;;;;;;5.03;4.00;;;;;;;9.23;59.77;99351.84;3479588;28;20422;-49
2021/05/04 07:46:48;;;;;;;4.88;3.42;;;;;;;9.17;59.30;99346.63;3484256;28;20399;-48
2021/05/04 07:48:30;;;;;;;5.72;4.00;;;;;;;9.11;60.35;99336.16;3481062;28;20418;-50
2021/05/04 07:50:12;;;;;;;5.35;4.28;;;;;;;9.07;60.78;99345.59;3481815;28;20053;-51
2021/05/04 07:51:53;;;;;;;6.90;4.22;;;;;;;9.10;60.86;99339.56;3482465;28;20045;-50
2021/05/04 07:53:35;;;;;;;5.88;4.00;;;;;;;9.18;60.36;99344.88;3480135;28;20126;-51
2021/05/04 07:55:17;;;;;;;6.13;4.10;;;;;;;9.34;60.08;99347.69;3484082;28;20056;-51
2021/05/04 07:56:58;;;;;;;6.40;3.95;;;;;;;9.57;59.52;99343.69;3481015;28;20079;-50
2021/05/04 07:58:40;;;;;;;6.55;4.18;;;;;;;9.80;58.46;99347.41;3484307;28;20079;-50
2021/05/04 08:00:22;;;;;;;9.32;4.53;;;;;;;9.95;58.09;99358.81;3480029;28;20088;-53
2021/05/04 08:02:04;;;;;;;5.68;4.20;;;;;;;9.79;57.43;99357.75;3482605;28;20049;-50
2021/05/04 08:03:46;;;;;;;7.18;4.22;;;;;;;9.58;57.56;99345.41;3482367;28;20106;-52